sensor_id;sensor_type;location;lat;lon;timestamp;pressure;altitude;pressure_sealevel;temperature;humidity
15914;BME280;8055;51.930;8.840;2023-01-23T00:01:20;78677.16;;;-145.72;100.00
15914;BME280;8055;51.930;8.840;2023-01-23T00:03:49;78677.16;;;-145.72;100.00
15914;BME280;8055;51.930;8.840;2023-01-23T00:06:15;78681.28;;;-145.72;100.00
15914;BME280;8055;51.930;8.840;2023-01-23T00:08:43;78677.16;;;-145.72;100.00
15914;BME280;8055;51.930;8.840;2023-01-23T00:11:15;78677.16;;;-145.72;100.00
15914;BME280;8055;51.930;8.840;2023-01-23T00:13:40;78673.00;;;-145.72;100.00
15914;BME280;8055;51.930;8.840;2023-01-23T00:16:09;78675.06;;;-145.72;100.00
15914;BME280;8055;51.930;8.840;2023-01-23T00:18:35;78673.00;;;-145.72;100.00
15914;BME280;8055;51.930;8.840;2023-01-23T00:21:05;78668.88;;;-145.72;100.00
15914;BME280;8055;51.930;8.840;2023-01-23T00:23:31;78668.88;;;-145.72;100.00
15914;BME280;8055;51.930;8.840;2023-01-23T00:26:02;78662.66;;;-145.72;100.00
15914;BME280;8055;51.930;8.840;2023-01-23T00:28:27;78660.56;;;-145.72;100.00
15914;BME280;8055;51.930;8.840;2023-01-23T00:30:53;78664.72;;;-145.72;100.00
15914;BME280;8055;51.930;8.840;2023-01-23T00:33:18;78668.88;;;-145.72;100.00
15914;BME280;8055;51.930;8.840;2023-01-23T00:35:43;78670.94;;;-145.72;100.00
15914;BME280;8055;51.930;8.840;2023-01-23T00:38:09;78673.00;;;-145.72;100.00
15914;BME280;8055;51.930;8.840;2023-01-23T00:40:34;78668.88;;;-145.72;100.00
15914;BME280;8055;51.930;8.840;2023-01-23T00:42:59;78670.94;;;-145.72;100.00
15914;BME280;8055;51.930;8.840;2023-01-23T00:45:25;78666.78;;;-145.72;100.00
15914;BME280;8055;51.930;8.840;2023-01-23T00:47:50;78664.72;;;-145.72;100.00
15914;BME280;8055;51.930;8.840;2023-01-23T00:50:15;78668.88;;;-145.72;100.00
15914;BME280;8055;51.930;8.840;2023-01-23T00:52:41;78670.94;;;-145.72;100.00
15914;BME280;8055;51.930;8.840;2023-01-23T00:55:07;78670.94;;;-145.72;100.00
15914;BME280;8055;51.930;8.840;2023-01-23T00:57:32;78668.88;;;-145.72;100.00
15914;BME280;8055;51.930;8.840;2023-01-23T00:59:58;78677.16;;;-145.72;100.00
15914;BME280;8055;51.930;8.840;2023-01-23T01:02:23;78679.22;;;-145.72;100.00
15914;BME280;8055;51.930;8.840;2023-01-23T01:04:48;78681.28;;;-145.72;100.00
15914;BME280;8055;51.930;8.840;2023-01-23T01:07:14;78677.16;;;-145.72;100.00
15914;BME280;8055;51.930;8.840;2023-01-23T01:09:39;78681.28;;;-145.72;100.00
15914;BME280;8055;51.930;8.840;2023-01-23T01:12:04;78679.22;;;-145.72;100.00
15914;BME280;8055;51.930;8.840;2023-01-23T01:14:30;78683.34;;;-145.72;100.00
15914;BME280;8055;51.930;8.840;2023-01-23T01:16:56;78685.44;;;-145.72;100.00
15914;BME280;8055;51.930;8.840;2023-01-23T01:19:22;78691.63;;;-145.72;100.00
15914;BME280;8055;51.930;8.840;2023-01-23T01:21:48;78695.78;;;-145.72;100.00
15914;BME280;8055;51.930;8.840;2023-01-23T01:24:13;78691.63;;;-145.72;100.00
15914;BME280;8055;51.930;8.840;2023-01-23T01:26:38;78691.63;;;-145.72;100.00
15914;BME280;8055;51.930;8.840;2023-01-23T01:29:04;78697.84;;;-145.72;100.00
15914;BME280;8055;51.930;8.840;2023-01-23T01:31:29;78702.00;;;-145.72;100.00
15914;BME280;8055;51.930;8.840;2023-01-23T01:33:55;78708.22;;;-145.72;100.00
15914;BME280;8055;51.930;8.840;2023-01-23T01:36:21;78710.28;;;-145.72;100.00
15914;BME280;8055;51.930;8.840;2023-01-23T01:38:48;78704.06;;;-145.72;100.00
15914;BME280;8055;51.930;8.840;2023-01-23T01:41:13;78697.84;;;-145.72;100.00
15914;BME280;8055;51.930;8.840;2023-01-23T01:43:40;78710.28;;;-145.72;100.00
15914;BME280;8055;51.930;8.840;2023-01-23T01:53:54;78710.28;;;-145.72;100.00
15914;BME280;8055;51.930;8.840;2023-01-23T01:56:22;78714.41;;;-145.72;100.00
15914;BME280;8055;51.930;8.840;2023-01-23T01:58:51;78716.50;;;-145.72;100.00
15914;BME280;8055;51.930;8.840;2023-01-23T02:01:18;78720.63;;;-145.72;100.00
15914;BME280;8055;51.930;8.840;2023-01-23T02:03:44;78720.63;;;-145.72;100.00
15914;BME280;8055;51.930;8.840;2023-01-23T02:06:10;78722.69;;;-145.72;100.00
15914;BME280;8055;51.930;8.840;2023-01-23T02:08:44;78722.69;;;-145.72;100.00
15914;BME280;8055;51.930;8.840;2023-01-23T02:11:12;78726.84;;;-145.72;100.00
15914;BME280;8055;51.930;8.840;2023-01-23T02:13:39;78735.13;;;-145.72;100.00
15914;BME280;8055;51.930;8.840;2023-01-23T02:16:12;78726.84;;;-145.72;100.00
15914;BME280;8055;51.930;8.840;2023-01-23T02:18:43;78733.06;;;-145.72;100.00
15914;BME280;8055;51.930;8.840;2023-01-23T02:21:12;78733.06;;;-145.72;100.00
15914;BME280;8055;51.930;8.840;2023-01-23T02:24:02;78735.13;;;-145.72;100.00
15914;BME280;8055;51.930;8.840;2023-01-23T02:26:37;78735.13;;;-145.72;100.00
15914;BME280;8055;51.930;8.840;2023-01-23T02:29:04;78733.06;;;-145.72;100.00
15914;BME280;8055;51.930;8.840;2023-01-23T02:31:30;78743.41;;;-145.72;100.00
15914;BME280;8055;51.930;8.840;2023-01-23T02:33:56;78741.34;;;-145.72;100.00
15914;BME280;8055;51.930;8.840;2023-01-23T02:36:25;78735.13;;;-145.72;100.00
15914;BME280;8055;51.930;8.840;2023-01-23T02:39:05;78735.13;;;-145.72;100.00
15914;BME280;8055;51.930;8.840;2023-01-23T02:41:34;78735.13;;;-145.72;100.00
15914;BME280;8055;51.930;8.840;2023-01-23T02:44:11;78726.84;;;-145.72;100.00
15914;BME280;8055;51.930;8.840;2023-01-23T02:46:37;78735.13;;;-145.72;100.00
15914;BME280;8055;51.930;8.840;2023-01-23T02:49:03;78730.97;;;-145.72;100.00
15914;BME280;8055;51.930;8.840;2023-01-23T02:51:28;78735.13;;;-145.72;100.00
15914;BME280;8055;51.930;8.840;2023-01-23T02:53:54;78743.41;;;-145.72;100.00
15914;BME280;8055;51.930;8.840;2023-01-23T02:56:19;78741.34;;;-145.72;100.00
15914;BME280;8055;51.930;8.840;2023-01-23T02:58:45;78735.13;;;-145.72;100.00
15914;BME280;8055;51.930;8.840;2023-01-23T03:01:28;78730.97;;;-145.72;100.00
15914;BME280;8055;51.930;8.840;2023-01-23T03:03:55;78735.13;;;-145.72;100.00
15914;BME280;8055;51.930;8.840;2023-01-23T03:06:21;78730.97;;;-145.72;100.00
15914;BME280;8055;51.930;8.840;2023-01-23T03:08:47;78730.97;;;-145.72;100.00
15914;BME280;8055;51.930;8.840;2023-01-23T03:11:15;78726.84;;;-145.72;100.00
15914;BME280;8055;51.930;8.840;2023-01-23T03:13:40;78726.84;;;-145.72;100.00
15914;BME280;8055;51.930;8.840;2023-01-23T03:16:06;78722.69;;;-145.72;100.00
15914;BME280;8055;51.930;8.840;2023-01-23T03:18:32;78722.69;;;-145.72;100.00
15914;BME280;8055;51.930;8.840;2023-01-23T03:21:05;78718.56;;;-145.72;100.00
15914;BME280;8055;51.930;8.840;2023-01-23T03:23:31;78718.56;;;-145.72;100.00
15914;BME280;8055;51.930;8.840;2023-01-23T03:25:56;78724.78;;;-145.72;100.00
15914;BME280;8055;51.930;8.840;2023-01-23T03:28:25;78722.69;;;-145.72;100.00
15914;BME280;8055;51.930;8.840;2023-01-23T03:31:09;78722.69;;;-145.72;100.00
15914;BME280;8055;51.930;8.840;2023-01-23T03:33:35;78720.63;;;-145.72;100.00
15914;BME280;8055;51.930;8.840;2023-01-23T03:36:06;78722.69;;;-145.72;100.00
15914;BME280;8055;51.930;8.840;2023-01-23T03:38:32;78730.97;;;-145.72;100.00
15914;BME280;8055;51.930;8.840;2023-01-23T03:40:58;78720.63;;;-145.72;100.00
15914;BME280;8055;51.930;8.840;2023-01-23T03:43:41;78726.84;;;-145.72;100.00
15914;BME280;8055;51.930;8.840;2023-01-23T03:46:07;78730.97;;;-145.72;100.00
15914;BME280;8055;51.930;8.840;2023-01-23T03:48:32;78735.13;;;-145.72;100.00
15914;BME280;8055;51.930;8.840;2023-01-23T03:50:58;78730.97;;;-145.72;100.00
15914;BME280;8055;51.930;8.840;2023-01-23T03:53:23;78726.84;;;-145.72;100.00
15914;BME280;8055;51.930;8.840;2023-01-23T03:55:49;78726.84;;;-145.72;100.00
15914;BME280;8055;51.930;8.840;2023-01-23T03:58:14;78726.84;;;-145.72;100.00
15914;BME280;8055;51.930;8.840;2023-01-23T04:00:40;78722.69;;;-145.72;100.00
15914;BME280;8055;51.930;8.840;2023-01-23T04:03:05;78726.84;;;-145.72;100.00
15914;BME280;8055;51.930;8.840;2023-01-23T04:05:30;78720.63;;;-145.72;100.00
15914;BME280;8055;51.930;8.840;2023-01-23T04:07:56;78720.63;;;-145.72;100.00
15914;BME280;8055;51.930;8.840;2023-01-23T04:10:21;78712.34;;;-145.72;100.00
15914;BME280;8055;51.930;8.840;2023-01-23T04:12:46;78716.50;;;-145.72;100.00
15914;BME280;8055;51.930;8.840;2023-01-23T04:15:12;78712.34;;;-145.72;100.00
15914;BME280;8055;51.930;8.840;2023-01-23T04:17:37;78708.22;;;-145.72;100.00
15914;BME280;8055;51.930;8.840;2023-01-23T04:20:03;78718.56;;;-145.72;100.00
15914;BME280;8055;51.930;8.840;2023-01-23T04:22:29;78716.50;;;-145.72;100.00
15914;BME280;8055;51.930;8.840;2023-01-23T04:24:54;78712.34;;;-145.72;100.00
15914;BME280;8055;51.930;8.840;2023-01-23T04:27:20;78714.41;;;-145.72;100.00
15914;BME280;8055;51.930;8.840;2023-01-23T04:29:45;78712.34;;;-145.72;100.00
15914;BME280;8055;51.930;8.840;2023-01-23T04:32:12;78710.28;;;-145.72;100.00
15914;BME280;8055;51.930;8.840;2023-01-23T04:34:37;78704.06;;;-145.72;100.00
15914;BME280;8055;51.930;8.840;2023-01-23T04:37:03;78710.28;;;-145.72;100.00
15914;BME280;8055;51.930;8.840;2023-01-23T04:39:29;78710.28;;;-145.72;100.00
15914;BME280;8055;51.930;8.840;2023-01-23T04:41:55;78710.28;;;-145.72;100.00
15914;BME280;8055;51.930;8.840;2023-01-23T04:44:20;78708.22;;;-145.72;100.00
15914;BME280;8055;51.930;8.840;2023-01-23T04:46:50;78714.41;;;-145.72;100.00
15914;BME280;8055;51.930;8.840;2023-01-23T04:49:17;78712.34;;;-145.72;100.00
15914;BME280;8055;51.930;8.840;2023-01-23T04:51:44;78710.28;;;-145.72;100.00
15914;BME280;8055;51.930;8.840;2023-01-23T04:54:10;78712.34;;;-145.72;100.00
15914;BME280;8055;51.930;8.840;2023-01-23T04:56:36;78712.34;;;-145.72;100.00
15914;BME280;8055;51.930;8.840;2023-01-23T04:59:01;78714.41;;;-145.72;100.00
15914;BME280;8055;51.930;8.840;2023-01-23T05:01:27;78714.41;;;-145.72;100.00
15914;BME280;8055;51.930;8.840;2023-01-23T05:03:52;78718.56;;;-145.72;100.00
15914;BME280;8055;51.930;8.840;2023-01-23T05:06:18;78718.56;;;-145.72;100.00
15914;BME280;8055;51.930;8.840;2023-01-23T05:08:43;78720.63;;;-145.72;100.00
15914;BME280;8055;51.930;8.840;2023-01-23T05:11:09;78720.63;;;-145.72;100.00
15914;BME280;8055;51.930;8.840;2023-01-23T05:13:34;78726.84;;;-145.72;100.00
15914;BME280;8055;51.930;8.840;2023-01-23T05:16:00;78733.06;;;-145.72;100.00
15914;BME280;8055;51.930;8.840;2023-01-23T05:18:25;78733.06;;;-145.72;100.00
15914;BME280;8055;51.930;8.840;2023-01-23T05:20:50;78741.34;;;-145.72;100.00
15914;BME280;8055;51.930;8.840;2023-01-23T05:23:16;78735.13;;;-145.72;100.00
15914;BME280;8055;51.930;8.840;2023-01-23T05:25:41;78735.13;;;-145.72;100.00
15914;BME280;8055;51.930;8.840;2023-01-23T05:28:07;78739.25;;;-145.72;100.00
15914;BME280;8055;51.930;8.840;2023-01-23T05:30:32;78741.34;;;-145.72;100.00
15914;BME280;8055;51.930;8.840;2023-01-23T05:32:57;78747.56;;;-145.72;100.00
15914;BME280;8055;51.930;8.840;2023-01-23T05:35:23;78749.63;;;-145.72;100.00
15914;BME280;8055;51.930;8.840;2023-01-23T05:37:51;78737.19;;;-145.72;100.00
15914;BME280;8055;51.930;8.840;2023-01-23T05:40:18;78745.47;;;-145.72;100.00
15914;BME280;8055;51.930;8.840;2023-01-23T05:42:44;78751.69;;;-145.72;100.00
15914;BME280;8055;51.930;8.840;2023-01-23T05:45:09;78751.69;;;-145.72;100.00
15914;BME280;8055;51.930;8.840;2023-01-23T05:47:35;78755.84;;;-145.72;100.00
15914;BME280;8055;51.930;8.840;2023-01-23T05:50:01;78762.03;;;-145.72;100.00
15914;BME280;8055;51.930;8.840;2023-01-23T05:52:27;78766.19;;;-145.72;100.00
15914;BME280;8055;51.930;8.840;2023-01-23T05:54:52;78770.31;;;-145.72;100.00
15914;BME280;8055;51.930;8.840;2023-01-23T05:57:17;78766.19;;;-145.72;100.00
15914;BME280;8055;51.930;8.840;2023-01-23T05:59:43;78764.13;;;-145.72;100.00
15914;BME280;8055;51.930;8.840;2023-01-23T06:02:09;78770.31;;;-145.72;100.00
15914;BME280;8055;51.930;8.840;2023-01-23T06:04:34;78772.41;;;-145.72;100.00
15914;BME280;8055;51.930;8.840;2023-01-23T06:06:59;78776.53;;;-145.72;100.00
15914;BME280;8055;51.930;8.840;2023-01-23T06:09:25;78778.63;;;-145.72;100.00
15914;BME280;8055;51.930;8.840;2023-01-23T06:11:50;78774.47;;;-145.72;100.00
15914;BME280;8055;51.930;8.840;2023-01-23T06:14:15;78776.53;;;-145.72;100.00
15914;BME280;8055;51.930;8.840;2023-01-23T06:16:41;78780.69;;;-145.72;100.00
15914;BME280;8055;51.930;8.840;2023-01-23T06:19:06;78778.63;;;-145.72;100.00
15914;BME280;8055;51.930;8.840;2023-01-23T06:21:31;78784.81;;;-145.72;100.00
15914;BME280;8055;51.930;8.840;2023-01-23T06:24:00;78793.09;;;-145.72;100.00
15914;BME280;8055;51.930;8.840;2023-01-23T06:26:25;78795.19;;;-145.72;100.00
15914;BME280;8055;51.930;8.840;2023-01-23T06:28:51;78801.38;;;-145.72;100.00
15914;BME280;8055;51.930;8.840;2023-01-23T06:31:16;78803.47;;;-145.72;100.00
15914;BME280;8055;51.930;8.840;2023-01-23T06:33:41;78803.47;;;-145.72;100.00
15914;BME280;8055;51.930;8.840;2023-01-23T06:36:07;78801.38;;;-145.72;100.00
15914;BME280;8055;51.930;8.840;2023-01-23T06:38:33;78805.53;;;-145.72;100.00
15914;BME280;8055;51.930;8.840;2023-01-23T06:40:59;78797.25;;;-145.72;100.00
15914;BME280;8055;51.930;8.840;2023-01-23T06:43:25;78803.47;;;-145.72;100.00
15914;BME280;8055;51.930;8.840;2023-01-23T06:45:50;78803.47;;;-145.72;100.00
15914;BME280;8055;51.930;8.840;2023-01-23T06:48:16;78809.66;;;-145.72;100.00
15914;BME280;8055;51.930;8.840;2023-01-23T06:50:42;78817.97;;;-145.72;100.00
15914;BME280;8055;51.930;8.840;2023-01-23T06:53:08;78822.09;;;-145.72;100.00
15914;BME280;8055;51.930;8.840;2023-01-23T06:55:36;78815.88;;;-145.72;100.00
15914;BME280;8055;51.930;8.840;2023-01-23T06:58:02;78815.88;;;-145.72;100.00
15914;BME280;8055;51.930;8.840;2023-01-23T07:00:27;78824.16;;;-145.72;100.00
15914;BME280;8055;51.930;8.840;2023-01-23T07:02:53;78834.53;;;-145.72;100.00
15914;BME280;8055;51.930;8.840;2023-01-23T07:05:22;78830.38;;;-145.72;100.00
15914;BME280;8055;51.930;8.840;2023-01-23T07:07:50;78834.53;;;-145.72;100.00
15914;BME280;8055;51.930;8.840;2023-01-23T07:10:15;78842.81;;;-145.72;100.00
15914;BME280;8055;51.930;8.840;2023-01-23T07:12:40;78840.75;;;-145.72;100.00
15914;BME280;8055;51.930;8.840;2023-01-23T07:15:06;78844.88;;;-145.72;100.00
15914;BME280;8055;51.930;8.840;2023-01-23T07:17:32;78842.81;;;-145.72;100.00
15914;BME280;8055;51.930;8.840;2023-01-23T07:19:57;78846.94;;;-145.72;100.00
15914;BME280;8055;51.930;8.840;2023-01-23T07:22:23;78855.22;;;-145.72;100.00
15914;BME280;8055;51.930;8.840;2023-01-23T07:24:48;78851.09;;;-145.72;100.00
15914;BME280;8055;51.930;8.840;2023-01-23T07:27:14;78851.09;;;-145.72;100.00
15914;BME280;8055;51.930;8.840;2023-01-23T07:29:40;78851.09;;;-145.72;100.00
15914;BME280;8055;51.930;8.840;2023-01-23T07:32:06;78846.94;;;-145.72;100.00
15914;BME280;8055;51.930;8.840;2023-01-23T07:34:31;78846.94;;;-145.72;100.00
15914;BME280;8055;51.930;8.840;2023-01-23T07:36:57;78849.03;;;-145.72;100.00
15914;BME280;8055;51.930;8.840;2023-01-23T07:39:22;78846.94;;;-145.72;100.00
15914;BME280;8055;51.930;8.840;2023-01-23T07:41:48;78853.16;;;-145.72;100.00
15914;BME280;8055;51.930;8.840;2023-01-23T07:44:15;78842.81;;;-145.72;100.00
15914;BME280;8055;51.930;8.840;2023-01-23T07:46:42;78846.94;;;-145.72;100.00
15914;BME280;8055;51.930;8.840;2023-01-23T07:49:07;78846.94;;;-145.72;100.00
15914;BME280;8055;51.930;8.840;2023-01-23T07:51:33;78849.03;;;-145.72;100.00
15914;BME280;8055;51.930;8.840;2023-01-23T07:53:59;78842.81;;;-145.72;100.00
15914;BME280;8055;51.930;8.840;2023-01-23T07:56:24;78859.38;;;-145.72;100.00
15914;BME280;8055;51.930;8.840;2023-01-23T07:58:50;78857.31;;;-145.72;100.00
15914;BME280;8055;51.930;8.840;2023-01-23T08:01:15;78853.16;;;-145.72;100.00
15914;BME280;8055;51.930;8.840;2023-01-23T08:03:41;78855.22;;;-145.72;100.00
15914;BME280;8055;51.930;8.840;2023-01-23T08:06:06;78859.38;;;-145.72;100.00
15914;BME280;8055;51.930;8.840;2023-01-23T08:08:32;78861.44;;;-145.72;100.00
15914;BME280;8055;51.930;8.840;2023-01-23T08:10:59;78861.44;;;-145.72;100.00
15914;BME280;8055;51.930;8.840;2023-01-23T08:13:27;78861.44;;;-145.72;100.00
15914;BME280;8055;51.930;8.840;2023-01-23T08:15:52;78865.59;;;-145.72;100.00
15914;BME280;8055;51.930;8.840;2023-01-23T08:18:18;78863.50;;;-145.72;100.00
15914;BME280;8055;51.930;8.840;2023-01-23T08:20:43;78863.50;;;-145.72;100.00
15914;BME280;8055;51.930;8.840;2023-01-23T08:23:16;78865.59;;;-145.72;100.00
15914;BME280;8055;51.930;8.840;2023-01-23T08:25:41;78865.59;;;-145.72;100.00
15914;BME280;8055;51.930;8.840;2023-01-23T08:28:06;78857.31;;;-145.72;100.00
15914;BME280;8055;51.930;8.840;2023-01-23T08:30:32;78861.44;;;-145.72;100.00
15914;BME280;8055;51.930;8.840;2023-01-23T08:32:58;78853.16;;;-145.72;100.00
15914;BME280;8055;51.930;8.840;2023-01-23T08:35:24;78851.09;;;-145.72;100.00
15914;BME280;8055;51.930;8.840;2023-01-23T08:37:49;78865.59;;;-145.72;100.00
15914;BME280;8055;51.930;8.840;2023-01-23T08:40:15;78859.38;;;-145.72;100.00
15914;BME280;8055;51.930;8.840;2023-01-23T08:42:41;78855.22;;;-145.72;100.00
15914;BME280;8055;51.930;8.840;2023-01-23T08:45:06;78857.31;;;-145.72;100.00
15914;BME280;8055;51.930;8.840;2023-01-23T08:47:32;78853.16;;;-145.72;100.00
15914;BME280;8055;51.930;8.840;2023-01-23T08:50:01;78853.16;;;-145.72;100.00
15914;BME280;8055;51.930;8.840;2023-01-23T08:52:26;78855.22;;;-145.72;100.00
15914;BME280;8055;51.930;8.840;2023-01-23T08:54:51;78846.94;;;-145.72;100.00
15914;BME280;8055;51.930;8.840;2023-01-23T08:57:17;78849.03;;;-145.72;100.00
15914;BME280;8055;51.930;8.840;2023-01-23T08:59:42;78842.81;;;-145.72;100.00
15914;BME280;8055;51.930;8.840;2023-01-23T09:02:10;78842.81;;;-145.72;100.00
15914;BME280;8055;51.930;8.840;2023-01-23T09:04:36;78832.44;;;-145.72;100.00
15914;BME280;8055;51.930;8.840;2023-01-23T09:07:02;78836.59;;;-145.72;100.00
15914;BME280;8055;51.930;8.840;2023-01-23T09:09:30;78832.44;;;-145.72;100.00
15914;BME280;8055;51.930;8.840;2023-01-23T09:11:55;78836.59;;;-145.72;100.00
15914;BME280;8055;51.930;8.840;2023-01-23T09:14:20;78834.53;;;-145.72;100.00
15914;BME280;8055;51.930;8.840;2023-01-23T09:16:46;78832.44;;;-145.72;100.00
15914;BME280;8055;51.930;8.840;2023-01-23T09:19:11;78838.66;;;-145.72;100.00
15914;BME280;8055;51.930;8.840;2023-01-23T09:21:36;78838.66;;;-145.72;100.00
15914;BME280;8055;51.930;8.840;2023-01-23T09:24:02;78842.81;;;-145.72;100.00
15914;BME280;8055;51.930;8.840;2023-01-23T09:26:28;78840.75;;;-145.72;100.00
15914;BME280;8055;51.930;8.840;2023-01-23T09:28:53;78838.66;;;-145.72;100.00
15914;BME280;8055;51.930;8.840;2023-01-23T09:31:19;78830.38;;;-145.72;100.00
15914;BME280;8055;51.930;8.840;2023-01-23T09:33:44;78840.75;;;-145.72;100.00
15914;BME280;8055;51.930;8.840;2023-01-23T09:36:09;78840.75;;;-145.72;100.00
15914;BME280;8055;51.930;8.840;2023-01-23T09:38:35;78838.66;;;-145.72;100.00
15914;BME280;8055;51.930;8.840;2023-01-23T09:43:45;78836.59;;;-145.72;100.00
15914;BME280;8055;51.930;8.840;2023-01-23T09:46:33;78832.44;;;-145.72;100.00
15914;BME280;8055;51.930;8.840;2023-01-23T09:49:21;78842.81;;;-145.72;100.00
15914;BME280;8055;51.930;8.840;2023-01-23T09:51:50;78849.03;;;-145.72;100.00
15914;BME280;8055;51.930;8.840;2023-01-23T09:57:00;78846.94;;;-145.72;100.00
15914;BME280;8055;51.930;8.840;2023-01-23T09:59:36;78844.88;;;-145.72;100.00
15914;BME280;8055;51.930;8.840;2023-01-23T10:02:08;78844.88;;;-145.72;100.00
15914;BME280;8055;51.930;8.840;2023-01-23T10:04:38;78849.03;;;-145.72;100.00
15914;BME280;8055;51.930;8.840;2023-01-23T10:07:43;78838.66;;;-145.72;100.00
15914;BME280;8055;51.930;8.840;2023-01-23T10:10:26;78838.66;;;-145.72;100.00
15914;BME280;8055;51.930;8.840;2023-01-23T10:13:00;78846.94;;;-145.72;100.00
15914;BME280;8055;51.930;8.840;2023-01-23T10:16:03;78832.44;;;-145.72;100.00
15914;BME280;8055;51.930;8.840;2023-01-23T10:21:08;78844.88;;;-145.72;100.00
15914;BME280;8055;51.930;8.840;2023-01-23T10:23:44;78840.75;;;-145.72;100.00
15914;BME280;8055;51.930;8.840;2023-01-23T10:26:25;78838.66;;;-145.72;100.00
15914;BME280;8055;51.930;8.840;2023-01-23T10:29:02;78838.66;;;-145.72;100.00
15914;BME280;8055;51.930;8.840;2023-01-23T10:31:41;78832.44;;;-145.72;100.00
15914;BME280;8055;51.930;8.840;2023-01-23T10:36:36;78820.03;;;-145.72;100.00
15914;BME280;8055;51.930;8.840;2023-01-23T10:39:14;78817.97;;;-145.72;100.00
15914;BME280;8055;51.930;8.840;2023-01-23T10:41:40;78813.81;;;-145.72;100.00
15914;BME280;8055;51.930;8.840;2023-01-23T10:44:17;78809.66;;;-145.72;100.00
15914;BME280;8055;51.930;8.840;2023-01-23T10:46:54;78813.81;;;-145.72;100.00
15914;BME280;8055;51.930;8.840;2023-01-23T10:49:32;78811.75;;;-145.72;100.00
15914;BME280;8055;51.930;8.840;2023-01-23T10:51:59;78807.59;;;-145.72;100.00
15914;BME280;8055;51.930;8.840;2023-01-23T10:54:26;78811.75;;;-145.72;100.00
15914;BME280;8055;51.930;8.840;2023-01-23T10:59:26;78801.38;;;-145.72;100.00
15914;BME280;8055;51.930;8.840;2023-01-23T11:02:34;78797.25;;;-145.72;100.00
15914;BME280;8055;51.930;8.840;2023-01-23T11:05:00;78799.31;;;-145.72;100.00
15914;BME280;8055;51.930;8.840;2023-01-23T11:07:28;78797.25;;;-145.72;100.00
15914;BME280;8055;51.930;8.840;2023-01-23T11:10:00;78784.81;;;-145.72;100.00
15914;BME280;8055;51.930;8.840;2023-01-23T11:12:28;78791.03;;;-145.72;100.00
15914;BME280;8055;51.930;8.840;2023-01-23T11:17:37;78782.75;;;-145.72;100.00
15914;BME280;8055;51.930;8.840;2023-01-23T11:20:32;78778.63;;;-145.72;100.00
15914;BME280;8055;51.930;8.840;2023-01-23T11:23:01;78774.47;;;-145.72;100.00
15914;BME280;8055;51.930;8.840;2023-01-23T11:25:36;78778.63;;;-145.72;100.00
15914;BME280;8055;51.930;8.840;2023-01-23T11:28:24;78764.13;;;-145.72;100.00
15914;BME280;8055;51.930;8.840;2023-01-23T11:31:02;78768.25;;;-145.72;100.00
15914;BME280;8055;51.930;8.840;2023-01-23T11:38:44;78757.91;;;-145.72;100.00
15914;BME280;8055;51.930;8.840;2023-01-23T11:41:12;78755.84;;;-145.72;100.00
15914;BME280;8055;51.930;8.840;2023-01-23T11:43:38;78749.63;;;-145.72;100.00
15914;BME280;8055;51.930;8.840;2023-01-23T11:46:28;78749.63;;;-145.72;100.00
15914;BME280;8055;51.930;8.840;2023-01-23T11:49:22;78739.25;;;-145.72;100.00
15914;BME280;8055;51.930;8.840;2023-01-23T11:52:16;78743.41;;;-145.72;100.00
15914;BME280;8055;51.930;8.840;2023-01-23T11:55:16;78730.97;;;-145.72;100.00
15914;BME280;8055;51.930;8.840;2023-01-23T12:11:02;78733.06;;;-145.72;100.00
15914;BME280;8055;51.930;8.840;2023-01-23T12:19:42;78745.47;;;-145.72;100.00
15914;BME280;8055;51.930;8.840;2023-01-23T12:22:28;78747.56;;;-145.72;100.00
15914;BME280;8055;51.930;8.840;2023-01-23T12:27:44;78743.41;;;-145.72;100.00
15914;BME280;8055;51.930;8.840;2023-01-23T12:35:48;78749.63;;;-145.72;100.00
15914;BME280;8055;51.930;8.840;2023-01-23T12:41:13;78739.25;;;-145.72;100.00
15914;BME280;8055;51.930;8.840;2023-01-23T12:46:15;78737.19;;;-145.72;100.00
15914;BME280;8055;51.930;8.840;2023-01-23T12:48:57;78741.34;;;-145.72;100.00
15914;BME280;8055;51.930;8.840;2023-01-23T12:51:33;78737.19;;;-145.72;100.00
15914;BME280;8055;51.930;8.840;2023-01-23T12:54:04;78737.19;;;-145.72;100.00
15914;BME280;8055;51.930;8.840;2023-01-23T12:56:34;78730.97;;;-145.72;100.00
15914;BME280;8055;51.930;8.840;2023-01-23T12:59:17;78726.84;;;-145.72;100.00
15914;BME280;8055;51.930;8.840;2023-01-23T13:07:07;78728.91;;;-145.72;100.00
15914;BME280;8055;51.930;8.840;2023-01-23T13:12:29;78733.06;;;-145.72;100.00
15914;BME280;8055;51.930;8.840;2023-01-23T13:17:48;78741.34;;;-145.72;100.00
15914;BME280;8055;51.930;8.840;2023-01-23T13:25:45;78755.84;;;-145.72;100.00
15914;BME280;8055;51.930;8.840;2023-01-23T13:28:33;78757.91;;;-145.72;100.00
15914;BME280;8055;51.930;8.840;2023-01-23T13:31:01;78759.97;;;-145.72;100.00
15914;BME280;8055;51.930;8.840;2023-01-23T13:36:11;78768.25;;;-145.72;100.00
15914;BME280;8055;51.930;8.840;2023-01-23T13:38:37;78772.41;;;-145.72;100.00
15914;BME280;8055;51.930;8.840;2023-01-23T13:52:17;78780.69;;;-145.72;100.00
15914;BME280;8055;51.930;8.840;2023-01-23T13:55:13;78780.69;;;-145.72;100.00
15914;BME280;8055;51.930;8.840;2023-01-23T13:57:58;78788.97;;;-145.72;100.00
15914;BME280;8055;51.930;8.840;2023-01-23T14:00:24;78784.81;;;-145.72;100.00
15914;BME280;8055;51.930;8.840;2023-01-23T14:02:57;78793.09;;;-145.72;100.00
15914;BME280;8055;51.930;8.840;2023-01-23T14:05:42;78782.75;;;-145.72;100.00
15914;BME280;8055;51.930;8.840;2023-01-23T14:08:19;78784.81;;;-145.72;100.00
15914;BME280;8055;51.930;8.840;2023-01-23T14:10:46;78786.91;;;-145.72;100.00
15914;BME280;8055;51.930;8.840;2023-01-23T14:13:18;78788.97;;;-145.72;100.00
15914;BME280;8055;51.930;8.840;2023-01-23T14:15:50;78793.09;;;-145.72;100.00
15914;BME280;8055;51.930;8.840;2023-01-23T14:18:49;78788.97;;;-145.72;100.00
15914;BME280;8055;51.930;8.840;2023-01-23T14:21:26;78793.09;;;-145.72;100.00